Time;durP1;ratioP1;P1;durP2;ratioP2;P2;SDS_P1;SDS_P2;PMS_P1;PMS_P2;Temp;Humidity;BMP_temperature;BMP_pressure;BME280_temperature;BME280_humidity;BME280_pressure;Samples;Min_cycle;Max_cycle;Signal;HPM_P1;HPM_P2
2022/07/17 00:00:18;;;;;;;3.13;1.92;;;25.60;73.10;;;;;;5033101;28;20088;-26
2022/07/17 00:02:44;;;;;;;4.10;1.90;;;25.60;73.10;;;;;;5033826;28;20079;-26
2022/07/17 00:05:09;;;;;;;2.67;1.70;;;25.50;73.00;;;;;;5033109;28;20018;-25
2022/07/17 00:07:35;;;;;;;3.88;1.83;;;25.60;73.10;;;;;;5014928;28;20091;-25
2022/07/17 00:10:01;;;;;;;2.35;1.85;;;25.50;73.00;;;;;;5032326;28;20104;-26
2022/07/17 00:12:27;;;;;;;2.72;1.80;;;25.50;73.00;;;;;;5032626;28;20108;-26
2022/07/17 00:14:53;;;;;;;2.20;1.73;;;25.50;73.00;;;;;;5032875;28;20104;-25
2022/07/17 00:17:21;;;;;;;3.28;1.80;;;25.50;73.00;;;;;;5032575;28;20079;-25
2022/07/17 00:19:46;;;;;;;3.25;1.70;;;25.50;73.00;;;;;;5032198;28;20022;-25
2022/07/17 00:22:12;;;;;;;2.47;1.90;;;25.50;73.00;;;;;;5032432;28;20040;-25
2022/07/17 00:24:38;;;;;;;2.63;1.83;;;25.50;73.00;;;;;;5032461;28;20026;-25
2022/07/17 00:27:04;;;;;;;2.63;1.77;;;25.50;73.00;;;;;;5032245;28;20056;-25
2022/07/17 00:29:30;;;;;;;3.05;1.75;;;25.50;73.10;;;;;;5032105;28;20065;-25
2022/07/17 00:31:55;;;;;;;3.72;2.03;;;25.50;73.10;;;;;;5032401;28;20040;-25
2022/07/17 00:34:21;;;;;;;2.83;1.90;;;25.50;73.10;;;;;;5032324;28;20100;-25
2022/07/17 00:36:46;;;;;;;3.70;1.83;;;25.50;73.00;;;;;;5014748;28;20025;-25
2022/07/17 00:39:12;;;;;;;2.40;1.65;;;25.50;73.00;;;;;;5032242;28;20033;-25
2022/07/17 00:41:39;;;;;;;3.63;2.00;;;25.50;73.00;;;;;;5032193;28;20136;-25
2022/07/17 00:44:06;;;;;;;2.40;1.73;;;25.50;73.10;;;;;;5032191;28;20060;-25
2022/07/17 00:46:32;;;;;;;2.63;1.70;;;25.50;73.00;;;;;;5014362;28;20036;-25
2022/07/17 00:48:58;;;;;;;2.60;1.90;;;25.50;73.10;;;;;;5031872;28;20052;-25
2022/07/17 00:51:24;;;;;;;3.63;1.90;;;25.50;73.10;;;;;;5031942;28;20475;-25
2022/07/17 00:53:51;;;;;;;2.63;1.60;;;25.50;73.00;;;;;;5032065;28;20071;-25
2022/07/17 00:56:17;;;;;;;2.25;1.65;;;25.50;73.00;;;;;;5031968;28;20277;-25
2022/07/17 00:58:44;;;;;;;2.10;1.85;;;25.50;73.00;;;;;;5031867;28;20100;-25
2022/07/17 01:01:10;;;;;;;3.17;2.22;;;25.50;73.10;;;;;;5014243;28;20122;-25
2022/07/17 01:03:36;;;;;;;2.83;1.70;;;25.50;73.10;;;;;;5031999;28;20534;-25
2022/07/17 01:06:02;;;;;;;2.17;1.50;;;25.50;73.10;;;;;;5031890;28;20036;-25
2022/07/17 01:08:28;;;;;;;3.70;1.80;;;25.50;73.10;;;;;;5013716;28;20108;-26
2022/07/17 01:10:54;;;;;;;3.25;1.80;;;25.50;73.10;;;;;;5031758;28;20427;-25
2022/07/17 01:13:20;;;;;;;2.45;1.70;;;25.50;73.10;;;;;;5031828;28;20053;-25
2022/07/17 01:15:45;;;;;;;2.45;1.85;;;25.50;73.10;;;;;;5032008;28;20033;-25
2022/07/17 01:18:13;;;;;;;3.15;1.92;;;25.50;73.10;;;;;;5032071;28;20018;-25
2022/07/17 01:20:43;;;;;;;2.20;1.75;;;25.50;73.10;;;;;;5031726;28;20390;-25
2022/07/17 01:23:09;;;;;;;2.10;1.77;;;25.50;73.10;;;;;;5031755;28;20375;-25
2022/07/17 01:25:35;;;;;;;4.10;1.80;;;25.50;73.10;;;;;;5031876;28;20100;-25
2022/07/17 01:28:02;;;;;;;2.10;1.73;;;25.50;73.10;;;;;;5031661;28;20064;-25
2022/07/17 01:30:29;;;;;;;2.28;1.58;;;25.50;73.10;;;;;;5031586;28;20091;-25
2022/07/17 01:32:54;;;;;;;2.00;1.50;;;25.50;73.10;;;;;;5031687;28;20105;-25
2022/07/17 01:35:21;;;;;;;3.83;1.90;;;25.40;73.00;;;;;;5031721;28;20525;-25
2022/07/17 01:37:47;;;;;;;1.63;1.40;;;25.40;73.10;;;;;;5031537;28;20111;-25
2022/07/17 01:40:16;;;;;;;3.10;1.52;;;25.40;73.10;;;;;;5031866;28;20395;-26
2022/07/17 01:42:43;;;;;;;3.03;1.70;;;25.40;73.10;;;;;;5031906;28;20374;-25
2022/07/17 01:45:10;;;;;;;2.25;1.70;;;25.40;73.10;;;;;;5031501;28;20022;-26
2022/07/17 01:47:36;;;;;;;2.40;1.60;;;25.40;73.10;;;;;;5031655;28;20390;-25
2022/07/17 01:50:04;;;;;;;1.85;1.60;;;25.40;73.10;;;;;;5031340;28;20457;-25
2022/07/17 01:52:30;;;;;;;2.63;1.80;;;25.40;73.10;;;;;;5031451;28;20030;-25
2022/07/17 01:54:55;;;;;;;2.63;2.00;;;25.40;73.10;;;;;;5031616;28;20475;-25
2022/07/17 01:57:21;;;;;;;1.95;1.40;;;25.40;73.10;;;;;;5031452;28;20053;-25
2022/07/17 01:59:47;;;;;;;2.80;1.55;;;25.40;73.10;;;;;;5031262;28;20029;-25
2022/07/17 02:02:15;;;;;;;2.22;1.70;;;25.30;73.00;;;;;;5031750;28;20028;-25
2022/07/17 02:04:42;;;;;;;4.05;1.65;;;25.40;73.10;;;;;;5031348;28;20022;-25
2022/07/17 02:07:08;;;;;;;2.13;1.50;;;25.30;73.00;;;;;;5031237;28;20079;-25
2022/07/17 02:09:34;;;;;;;3.10;1.63;;;25.30;73.10;;;;;;5031087;28;20033;-25
2022/07/17 02:12:00;;;;;;;2.28;1.70;;;25.30;73.10;;;;;;5031220;28;20045;-25
2022/07/17 02:14:26;;;;;;;3.55;1.83;;;25.30;73.10;;;;;;5031229;28;20029;-25
2022/07/17 02:16:52;;;;;;;2.40;1.80;;;25.30;73.10;;;;;;5031288;28;20494;-25
2022/07/17 02:19:18;;;;;;;2.92;1.80;;;25.30;73.10;;;;;;5031003;28;20033;-25
2022/07/17 02:21:44;;;;;;;2.40;1.80;;;25.30;73.10;;;;;;5034562;28;20604;-25
2022/07/17 02:24:10;;;;;;;2.35;1.67;;;25.30;73.10;;;;;;5034780;28;20013;-25
2022/07/17 02:26:36;;;;;;;2.67;1.77;;;25.30;73.10;;;;;;5034695;28;20021;-25
2022/07/17 02:29:01;;;;;;;2.47;1.85;;;25.30;73.20;;;;;;5034553;28;20091;-25
2022/07/17 02:31:27;;;;;;;1.92;1.52;;;25.20;73.10;;;;;;5034669;28;20034;-25
2022/07/17 02:33:53;;;;;;;2.03;1.50;;;25.20;73.10;;;;;;5034673;28;20438;-26
2022/07/17 02:36:19;;;;;;;2.05;1.60;;;25.20;73.20;;;;;;5034486;28;20434;-25
2022/07/17 02:38:45;;;;;;;3.50;1.83;;;25.20;73.20;;;;;;5034561;28;20364;-25
2022/07/17 02:41:10;;;;;;;2.65;1.70;;;25.20;73.20;;;;;;5034528;28;20024;-25
2022/07/17 02:43:36;;;;;;;3.00;1.90;;;25.20;73.20;;;;;;5034557;28;20021;-25
2022/07/17 02:46:02;;;;;;;3.70;1.70;;;25.20;73.10;;;;;;5034377;28;20029;-25
2022/07/17 02:48:28;;;;;;;2.35;1.90;;;25.20;73.20;;;;;;5016364;28;20037;-25
2022/07/17 02:50:54;;;;;;;2.35;1.40;;;25.20;73.20;;;;;;5034268;28;20041;-25
2022/07/17 02:53:19;;;;;;;1.83;1.58;;;25.20;73.20;;;;;;5034436;28;20017;-25
2022/07/17 02:55:45;;;;;;;2.10;1.58;;;25.20;73.20;;;;;;5016676;28;20544;-25
2022/07/17 02:58:11;;;;;;;2.47;1.65;;;25.10;73.10;;;;;;5033984;28;20151;-25
2022/07/17 03:00:37;;;;;;;2.17;1.60;;;25.20;73.20;;;;;;5034186;28;20026;-25
2022/07/17 03:03:02;;;;;;;2.78;1.73;;;25.10;73.20;;;;;;5034223;28;20506;-25
2022/07/17 03:05:28;;;;;;;1.67;1.58;;;25.10;73.20;;;;;;5033926;28;20032;-25
2022/07/17 03:07:54;;;;;;;2.28;1.75;;;25.10;73.20;;;;;;5016388;28;20021;-25
2022/07/17 03:10:20;;;;;;;1.80;1.60;;;25.10;73.30;;;;;;4999621;28;20060;-25
2022/07/17 03:12:46;;;;;;;5.70;1.60;;;25.10;73.30;;;;;;5034094;28;20026;-25
2022/07/17 03:15:11;;;;;;;2.28;1.65;;;25.10;73.30;;;;;;5034160;28;20402;-25
2022/07/17 03:17:41;;;;;;;1.90;1.65;;;25.10;73.30;;;;;;5034049;28;20029;-25
2022/07/17 03:20:08;;;;;;;2.15;1.80;;;25.10;73.30;;;;;;5015898;28;20478;-25
2022/07/17 03:22:34;;;;;;;2.95;1.73;;;25.10;73.30;;;;;;5034528;28;20026;-25
2022/07/17 03:24:59;;;;;;;2.15;1.65;;;25.00;73.20;;;;;;5016574;28;20027;-25
2022/07/17 03:27:25;;;;;;;2.53;2.03;;;25.00;73.30;;;;;;5033936;28;20033;-25
2022/07/17 03:29:54;;;;;;;1.90;1.40;;;25.00;73.30;;;;;;5033532;28;20398;-25
2022/07/17 03:32:20;;;;;;;2.05;1.60;;;25.00;73.30;;;;;;5033640;28;20482;-25
2022/07/17 03:34:46;;;;;;;2.08;1.70;;;25.00;73.30;;;;;;5015960;28;20061;-25
2022/07/17 03:37:12;;;;;;;1.70;1.50;;;25.00;73.30;;;;;;5034086;28;20033;-26
2022/07/17 03:39:38;;;;;;;1.98;1.77;;;25.00;73.30;;;;;;5015483;28;20577;-25
2022/07/17 03:42:04;;;;;;;2.08;1.50;;;25.00;74.10;;;;;;5033676;28;20032;-26
2022/07/17 03:44:30;;;;;;;2.08;1.67;;;25.00;74.10;;;;;;5033537;28;20513;-26
2022/07/17 03:46:55;;;;;;;2.47;1.65;;;24.90;73.30;;;;;;5033287;28;20391;-26
2022/07/17 03:49:21;;;;;;;2.47;1.48;;;24.90;73.30;;;;;;5033423;28;20070;-26
2022/07/17 03:51:47;;;;;;;2.63;1.80;;;24.90;73.40;;;;;;5033722;28;20018;-25
2022/07/17 03:54:13;;;;;;;2.78;2.00;;;24.90;73.30;;;;;;5033373;28;20510;-25
2022/07/17 03:56:39;;;;;;;4.15;2.50;;;24.90;73.40;;;;;;5033428;28;20478;-26
2022/07/17 03:59:04;;;;;;;2.88;2.10;;;24.90;73.40;;;;;;5032891;28;20105;-26
2022/07/17 04:01:30;;;;;;;3.20;2.40;;;24.90;73.40;;;;;;5033372;28;20474;-25
2022/07/17 04:03:56;;;;;;;2.72;2.08;;;24.90;73.40;;;;;;5033183;28;20084;-25
2022/07/17 04:06:21;;;;;;;3.97;2.17;;;24.90;73.40;;;;;;5015253;28;20021;-26
2022/07/17 04:08:47;;;;;;;3.15;2.10;;;24.90;73.50;;;;;;5032558;28;20030;-25
2022/07/17 04:11:12;;;;;;;2.35;1.88;;;24.90;73.50;;;;;;5032509;28;20044;-26
2022/07/17 04:13:38;;;;;;;3.28;2.17;;;24.80;73.50;;;;;;5032640;28;20036;-25
2022/07/17 04:16:05;;;;;;;3.20;2.10;;;24.80;73.50;;;;;;5032500;28;20430;-25
2022/07/17 04:18:32;;;;;;;2.88;2.33;;;24.80;74.30;;;;;;5032312;28;20084;-26
2022/07/17 04:21:00;;;;;;;2.47;1.77;;;24.80;73.60;;;;;;5032462;28;20052;-25
2022/07/17 04:23:26;;;;;;;3.15;2.13;;;24.80;73.60;;;;;;5032411;28;20093;-26
2022/07/17 04:25:53;;;;;;;2.58;2.10;;;24.80;73.60;;;;;;5014626;28;20506;-26
2022/07/17 04:28:19;;;;;;;2.33;2.00;;;24.80;73.60;;;;;;5032201;28;20034;-26
2022/07/17 04:30:45;;;;;;;3.80;2.20;;;24.80;73.70;;;;;;5032177;28;20033;-25
2022/07/17 04:33:11;;;;;;;3.88;2.38;;;24.70;73.60;;;;;;5032540;28;20021;-26
2022/07/17 04:35:37;;;;;;;3.13;2.22;;;24.70;73.60;;;;;;5032388;28;20479;-26
2022/07/17 04:38:05;;;;;;;4.65;1.98;;;24.70;73.60;;;;;;5032402;28;20025;-25
2022/07/17 04:40:31;;;;;;;3.10;2.20;;;24.70;73.60;;;;;;5031974;28;20022;-26
2022/07/17 04:42:57;;;;;;;2.63;2.08;;;24.70;73.60;;;;;;5031649;28;20049;-26
2022/07/17 04:45:22;;;;;;;2.42;1.90;;;24.70;73.60;;;;;;5031963;28;20552;-25
2022/07/17 04:47:48;;;;;;;3.70;2.17;;;24.70;73.60;;;;;;5032067;28;20032;-26
2022/07/17 04:50:14;;;;;;;3.22;2.45;;;24.70;73.70;;;;;;5031865;28;20510;-26
2022/07/17 04:52:40;;;;;;;2.78;2.03;;;24.70;73.70;;;;;;5032012;28;20561;-26
2022/07/17 04:55:06;;;;;;;2.40;1.92;;;24.70;73.70;;;;;;5032001;28;20041;-26
2022/07/17 04:57:31;;;;;;;2.13;1.77;;;24.70;73.70;;;;;;5031851;28;20028;-26
2022/07/17 04:59:57;;;;;;;2.40;1.88;;;24.70;73.70;;;;;;5031524;28;20121;-26
2022/07/17 05:02:23;;;;;;;2.70;1.85;;;24.60;73.70;;;;;;5014185;28;20109;-26
2022/07/17 05:04:49;;;;;;;3.88;2.03;;;24.70;73.70;;;;;;5032173;28;20049;-26
2022/07/17 05:07:15;;;;;;;3.17;1.77;;;24.60;73.70;;;;;;5031831;28;20494;-26
2022/07/17 05:09:41;;;;;;;2.72;1.85;;;24.60;73.70;;;;;;5031621;28;20021;-26
2022/07/17 05:12:06;;;;;;;3.20;1.90;;;24.60;73.70;;;;;;5054768;22;20053;-26
2022/07/17 05:14:32;;;;;;;2.50;1.70;;;24.60;74.40;;;;;;5014016;28;20018;-26
2022/07/17 05:16:58;;;;;;;3.58;2.05;;;24.60;74.40;;;;;;5031756;28;20049;-26
2022/07/17 05:19:24;;;;;;;2.72;2.00;;;24.60;73.70;;;;;;5031608;28;20485;-26
2022/07/17 05:21:50;;;;;;;2.20;1.88;;;24.60;73.70;;;;;;5031771;28;20022;-26
2022/07/17 05:24:15;;;;;;;2.33;1.65;;;24.60;73.70;;;;;;5031735;28;20034;-26
2022/07/17 05:26:41;;;;;;;3.85;1.90;;;24.60;73.70;;;;;;5031754;28;20030;-26
2022/07/17 05:29:07;;;;;;;3.25;1.88;;;24.60;73.70;;;;;;5031401;28;20387;-26
2022/07/17 05:31:33;;;;;;;2.75;2.13;;;24.60;73.70;;;;;;5031615;28;20034;-26
2022/07/17 05:33:59;;;;;;;2.55;2.03;;;24.60;73.70;;;;;;5031683;28;20022;-27
2022/07/17 05:36:25;;;;;;;2.30;1.90;;;24.60;73.80;;;;;;5031520;28;20052;-26
2022/07/17 05:38:50;;;;;;;2.70;1.77;;;24.60;73.70;;;;;;5031801;28;20068;-26
2022/07/17 05:41:16;;;;;;;2.45;1.90;;;24.60;73.70;;;;;;5031534;28;20080;-26
2022/07/17 05:43:42;;;;;;;3.63;1.80;;;24.60;73.70;;;;;;5031914;28;20029;-26
2022/07/17 05:46:07;;;;;;;2.53;1.70;;;24.60;73.70;;;;;;5031529;28;20022;-26
2022/07/17 05:48:33;;;;;;;2.00;1.80;;;24.60;73.70;;;;;;5031282;28;20029;-26
2022/07/17 05:50:59;;;;;;;2.40;1.88;;;24.60;73.70;;;;;;5031708;28;20463;-26
2022/07/17 05:53:24;;;;;;;2.03;1.70;;;24.60;73.70;;;;;;5031506;28;20025;-26
2022/07/17 05:55:50;;;;;;;2.83;1.80;;;24.60;73.80;;;;;;5033769;28;20368;-26
2022/07/17 05:58:16;;;;;;;1.77;1.60;;;24.60;73.80;;;;;;5034882;28;20029;-26
2022/07/17 06:00:42;;;;;;;3.55;1.52;;;24.60;73.80;;;;;;5035150;28;20502;-26
2022/07/17 06:03:07;;;;;;;1.80;1.58;;;24.60;73.90;;;;;;5035196;28;20052;-26
2022/07/17 06:05:33;;;;;;;2.83;1.80;;;24.60;73.90;;;;;;5035071;28;20413;-26
2022/07/17 06:07:59;;;;;;;2.40;2.00;;;24.60;73.90;;;;;;5035047;28;20489;-26
2022/07/17 06:10:26;;;;;;;2.30;1.70;;;24.60;73.90;;;;;;5034706;28;20029;-26
2022/07/17 06:12:56;;;;;;;2.22;1.50;;;24.50;74.00;;;;;;5034954;28;20029;-26
2022/07/17 06:15:22;;;;;;;2.65;1.75;;;24.60;74.80;;;;;;5034949;28;20025;-26
2022/07/17 06:17:48;;;;;;;2.65;1.63;;;24.50;74.00;;;;;;5034785;28;20490;-26
2022/07/17 06:20:15;;;;;;;2.10;1.70;;;24.50;74.80;;;;;;5034877;28;20487;-26
2022/07/17 06:22:41;;;;;;;2.22;1.65;;;24.50;74.10;;;;;;5034859;28;20029;-26
2022/07/17 06:25:07;;;;;;;2.28;1.80;;;24.50;74.10;;;;;;5034821;28;20152;-26
2022/07/17 06:27:33;;;;;;;2.92;1.63;;;24.50;74.20;;;;;;5034578;28;20037;-26
2022/07/17 06:29:59;;;;;;;2.00;1.80;;;24.50;74.20;;;;;;5034472;28;20025;-26
2022/07/17 06:32:25;;;;;;;2.47;1.90;;;24.50;74.20;;;;;;5034542;28;20036;-26
2022/07/17 06:34:51;;;;;;;2.10;1.77;;;24.50;74.30;;;;;;5034566;28;20025;-26
2022/07/17 06:37:17;;;;;;;2.22;1.90;;;24.50;74.30;;;;;;5034482;28;20474;-26
2022/07/17 06:39:42;;;;;;;2.00;1.60;;;24.50;74.30;;;;;;5034261;28;20044;-26
2022/07/17 06:42:08;;;;;;;2.78;1.63;;;24.50;74.30;;;;;;5034240;28;20022;-26
2022/07/17 06:44:34;;;;;;;2.63;1.75;;;24.50;74.30;;;;;;5034382;28;20092;-26
2022/07/17 06:47:00;;;;;;;2.35;1.90;;;24.50;74.40;;;;;;5034375;28;20039;-26
2022/07/17 06:49:26;;;;;;;2.00;1.63;;;24.50;74.40;;;;;;5034059;28;20080;-26
2022/07/17 06:51:52;;;;;;;2.55;1.98;;;24.50;74.40;;;;;;5034116;28;20474;-26
2022/07/17 06:54:18;;;;;;;2.10;1.75;;;24.50;74.40;;;;;;5034213;28;20034;-26
2022/07/17 06:56:43;;;;;;;6.65;1.65;;;24.40;74.50;;;;;;5034003;28;20033;-26
2022/07/17 06:59:09;;;;;;;2.00;1.40;;;24.20;74.10;;;;;;5033939;28;20602;-26
2022/07/17 07:01:36;;;;;;;6.30;1.55;;;23.90;74.50;;;;;;5034200;28;20395;-26
2022/07/17 07:04:02;;;;;;;5.30;1.48;;;23.60;75.60;;;;;;5016297;28;20394;-27
2022/07/17 07:06:27;;;;;;;3.08;1.92;;;23.40;76.50;;;;;;5033613;28;20096;-27
2022/07/17 07:08:53;;;;;;;5.80;1.50;;;23.20;76.50;;;;;;5033731;28;20478;-26
2022/07/17 07:11:19;;;;;;;4.80;1.52;;;23.10;75.70;;;;;;5015814;28;20037;-26
2022/07/17 07:13:44;;;;;;;6.13;1.73;;;23.00;75.70;;;;;;5033915;28;20429;-26
2022/07/17 07:16:10;;;;;;;4.45;1.63;;;23.00;76.00;;;;;;5033749;28;20056;-26
2022/07/17 07:18:36;;;;;;;8.75;1.50;;;23.00;76.40;;;;;;5033894;28;20033;-26
2022/07/17 07:21:02;;;;;;;3.33;1.40;;;23.00;75.90;;;;;;5033617;28;20021;-26
2022/07/17 07:23:28;;;;;;;3.95;1.38;;;23.00;75.60;;;;;;5033688;28;20087;-26
2022/07/17 07:25:54;;;;;;;6.50;1.77;;;23.00;76.70;;;;;;5033495;28;20021;-26
2022/07/17 07:28:20;;;;;;;4.00;1.92;;;23.00;76.90;;;;;;5033406;28;20029;-26
2022/07/17 07:30:45;;;;;;;5.28;1.58;;;23.00;76.80;;;;;;5033380;28;20030;-27
2022/07/17 07:33:11;;;;;;;4.95;1.50;;;23.00;77.40;;;;;;5033428;28;20078;-27
2022/07/17 07:35:37;;;;;;;3.90;1.40;;;23.00;76.40;;;;;;5033900;28;20022;-26
2022/07/17 07:38:03;;;;;;;5.38;1.55;;;22.90;76.10;;;;;;5033262;28;20036;-26
2022/07/17 07:40:29;;;;;;;3.30;1.48;;;22.90;76.30;;;;;;5033023;28;20036;-26
2022/07/17 07:42:54;;;;;;;5.20;1.40;;;23.00;76.20;;;;;;5033307;28;20025;-26
2022/07/17 07:45:20;;;;;;;3.90;1.23;;;23.00;76.10;;;;;;5033236;28;20032;-26
2022/07/17 07:47:49;;;;;;;2.80;1.20;;;23.30;75.80;;;;;;5033098;28;20033;-26
2022/07/17 07:50:16;;;;;;;5.38;1.50;;;23.50;75.40;;;;;;5032931;28;20540;-26
2022/07/17 07:52:42;;;;;;;4.47;1.33;;;23.70;75.00;;;;;;5033050;28;20041;-26
2022/07/17 07:55:08;;;;;;;1.77;1.40;;;23.80;74.60;;;;;;5032979;28;20029;-26
2022/07/17 07:57:34;;;;;;;3.35;1.50;;;23.90;74.30;;;;;;5032911;28;20033;-26
2022/07/17 08:00:00;;;;;;;3.80;1.20;;;24.00;74.10;;;;;;5032751;28;20075;-26
2022/07/17 08:02:26;;;;;;;4.25;1.40;;;24.10;74.00;;;;;;5032812;28;20030;-26
2022/07/17 08:04:51;;;;;;;1.75;1.50;;;24.20;73.90;;;;;;5032882;28;20037;-26
2022/07/17 08:07:17;;;;;;;2.90;1.35;;;24.20;73.70;;;;;;5032743;28;20040;-26
2022/07/17 08:09:43;;;;;;;3.05;1.15;;;24.30;73.70;;;;;;5032435;28;20101;-26
2022/07/17 08:12:08;;;;;;;3.80;1.27;;;24.30;73.60;;;;;;5032548;28;20025;-26
2022/07/17 08:14:34;;;;;;;3.30;1.60;;;24.40;73.60;;;;;;5032641;28;20032;-26
2022/07/17 08:16:59;;;;;;;3.25;1.27;;;24.40;73.60;;;;;;5032185;28;20032;-26
2022/07/17 08:19:25;;;;;;;3.38;1.40;;;24.40;73.60;;;;;;5032317;28;20037;-26
2022/07/17 08:21:51;;;;;;;3.45;1.20;;;24.40;73.50;;;;;;5032460;28;20097;-26
2022/07/17 08:24:16;;;;;;;2.78;1.38;;;24.50;73.60;;;;;;5032400;28;20031;-26
2022/07/17 08:26:43;;;;;;;3.83;1.38;;;24.50;73.60;;;;;;5032473;28;20037;-26
2022/07/17 08:29:09;;;;;;;2.35;1.23;;;24.50;73.60;;;;;;5032217;28;20113;-26
2022/07/17 08:31:34;;;;;;;2.65;1.40;;;24.50;73.60;;;;;;5032282;28;20026;-26
2022/07/17 08:34:00;;;;;;;2.90;1.33;;;24.50;73.50;;;;;;5032356;28;20051;-26
2022/07/17 08:36:25;;;;;;;2.17;1.30;;;24.50;73.40;;;;;;5032158;28;20036;-26
2022/07/17 08:38:51;;;;;;;1.27;1.10;;;24.60;73.50;;;;;;5032480;28;20030;-26
2022/07/17 08:41:21;;;;;;;2.53;1.10;;;24.60;73.50;;;;;;5032215;28;20017;-26
2022/07/17 08:43:48;;;;;;;1.80;1.13;;;24.60;73.50;;;;;;5032238;28;20056;-26
2022/07/17 08:46:16;;;;;;;2.03;1.50;;;24.60;73.50;;;;;;5032151;28;20025;-26
2022/07/17 08:48:44;;;;;;;2.55;1.30;;;24.70;73.50;;;;;;5031858;28;20390;-26
2022/07/17 08:51:11;;;;;;;2.03;1.23;;;24.70;73.50;;;;;;5031957;28;20018;-26
2022/07/17 08:53:37;;;;;;;1.20;1.10;;;24.70;73.60;;;;;;5032346;28;20018;-26
2022/07/17 08:56:03;;;;;;;1.58;1.10;;;24.70;73.50;;;;;;5032131;28;20383;-26
2022/07/17 08:58:29;;;;;;;2.85;1.17;;;24.70;73.50;;;;;;5031844;28;20041;-26
2022/07/17 09:00:55;;;;;;;1.67;1.20;;;24.70;73.60;;;;;;5031881;28;20052;-26
2022/07/17 09:03:23;;;;;;;1.52;1.20;;;24.70;73.60;;;;;;5031962;28;20026;-26
2022/07/17 09:05:49;;;;;;;2.03;1.23;;;24.70;73.50;;;;;;5031755;28;20390;-27
2022/07/17 09:08:24;;;;;;;3.17;1.00;;;24.70;73.50;;;;;;5031709;28;20026;-26
2022/07/17 09:10:52;;;;;;;2.00;1.40;;;24.80;73.60;;;;;;5031730;28;20029;-26
2022/07/17 09:13:25;;;;;;;2.53;1.10;;;24.70;73.50;;;;;;5031921;28;20490;-26
2022/07/17 09:15:54;;;;;;;1.47;1.00;;;24.80;73.50;;;;;;5031853;28;20037;-27
2022/07/17 09:18:20;;;;;;;1.85;1.40;;;24.80;73.60;;;;;;5031874;28;20509;-27
2022/07/17 09:20:49;;;;;;;1.45;1.15;;;24.80;73.50;;;;;;5031713;28;20033;-27
2022/07/17 09:23:15;;;;;;;2.17;1.20;;;24.80;73.60;;;;;;5031729;28;20068;-27
2022/07/17 09:25:46;;;;;;;2.70;1.30;;;24.80;73.60;;;;;;5031767;28;20033;-27
2022/07/17 09:28:16;;;;;;;2.35;1.30;;;24.80;73.60;;;;;;5031839;28;20037;-27
2022/07/17 09:30:47;;;;;;;1.38;1.13;;;24.80;73.50;;;;;;5035256;28;20059;-27
2022/07/17 09:33:18;;;;;;;1.15;0.85;;;24.90;73.60;;;;;;5035811;28;20313;-27
2022/07/17 09:35:49;;;;;;;1.73;1.00;;;24.90;73.60;;;;;;5035900;28;20102;-27
2022/07/17 09:38:30;;;;;;;1.48;1.20;;;24.90;73.60;;;;;;5035355;28;20029;-27
2022/07/17 09:41:11;;;;;;;1.10;1.00;;;24.90;73.60;;;;;;5035530;28;20049;-27
2022/07/17 09:44:00;;;;;;;1.48;1.08;;;24.90;73.60;;;;;;5035557;28;20546;-26
2022/07/17 09:46:28;;;;;;;1.83;1.27;;;24.90;73.60;;;;;;5035502;28;20060;-27
2022/07/17 09:48:57;;;;;;;1.70;1.20;;;24.90;73.50;;;;;;5035200;28;20053;-27
2022/07/17 09:51:31;;;;;;;2.78;1.30;;;25.00;73.50;;;;;;5035456;28;20116;-27
2022/07/17 09:53:58;;;;;;;;;;;25.00;73.50;;;;;;5036110;28;20463;-27
2022/07/17 09:56:26;;;;;;;1.27;1.00;;;25.00;73.50;;;;;;5035225;28;19947;-26
2022/07/17 09:59:00;;;;;;;2.05;1.10;;;25.00;73.50;;;;;;5035013;28;20022;-26
2022/07/17 10:01:26;;;;;;;;;;;25.00;73.50;;;;;;5035827;28;20386;-26
2022/07/17 10:03:53;;;;;;;1.83;1.10;;;25.00;73.40;;;;;;5035125;28;19964;-26
2022/07/17 10:06:20;;;;;;;2.03;1.15;;;25.00;73.40;;;;;;5034951;28;20048;-26
2022/07/17 10:08:46;;;;;;;1.00;0.90;;;25.10;73.50;;;;;;5034860;28;20100;-26
2022/07/17 10:11:15;;;;;;;1.17;1.00;;;25.10;73.50;;;;;;5034857;28;20075;-26
2022/07/17 10:13:44;;;;;;;1.45;1.13;;;25.10;73.50;;;;;;5034993;28;20207;-27
2022/07/17 10:16:10;;;;;;;1.95;1.30;;;25.10;73.40;;;;;;5034818;28;20040;-27
2022/07/17 10:18:41;;;;;;;1.20;0.98;;;25.10;73.40;;;;;;5034591;28;20070;-27
2022/07/17 10:21:21;;;;;;;2.35;1.20;;;25.20;73.40;;;;;;5034770;28;20021;-26
2022/07/17 10:24:08;;;;;;;1.95;1.05;;;25.20;73.30;;;;;;5034794;28;20026;-26
2022/07/17 10:26:36;;;;;;;1.85;1.27;;;25.20;73.40;;;;;;5034603;28;20033;-26
2022/07/17 10:29:03;;;;;;;1.17;1.00;;;25.20;73.30;;;;;;5034272;28;20084;-26
2022/07/17 10:31:30;;;;;;;1.13;0.90;;;25.20;73.30;;;;;;5034647;28;20114;-27
2022/07/17 10:34:05;;;;;;;1.30;1.20;;;25.30;73.30;;;;;;5034540;28;20029;-26
2022/07/17 10:36:43;;;;;;;1.90;1.00;;;25.30;73.30;;;;;;5034488;28;20033;-26
2022/07/17 10:39:21;;;;;;;1.63;1.10;;;25.30;73.30;;;;;;5034254;28;20022;-26
2022/07/17 10:42:00;;;;;;;1.40;1.02;;;25.30;73.20;;;;;;5033472;28;20030;-26
2022/07/17 10:44:34;;;;;;;1.25;1.10;;;25.30;73.30;;;;;;5034415;28;20108;-27
2022/07/17 10:47:00;;;;;;;3.35;1.10;;;25.30;73.20;;;;;;5034511;28;20351;-27
2022/07/17 10:49:26;;;;;;;1.77;1.08;;;25.30;73.20;;;;;;5034084;28;20156;-27
2022/07/17 10:51:52;;;;;;;2.65;1.45;;;25.30;73.20;;;;;;5034152;28;20091;-27
2022/07/17 10:54:19;;;;;;;1.60;1.20;;;25.30;73.10;;;;;;5034141;28;20032;-27
2022/07/17 10:56:45;;;;;;;1.52;1.20;;;25.30;73.10;;;;;;5034270;28;20403;-26
2022/07/17 10:59:11;;;;;;;1.55;1.10;;;25.30;73.00;;;;;;5033887;28;20092;-26
2022/07/17 11:01:37;;;;;;;1.17;0.90;;;25.30;73.00;;;;;;5034000;28;20022;-26
2022/07/17 11:04:04;;;;;;;2.72;1.23;;;25.40;73.90;;;;;;5034068;28;20017;-26
2022/07/17 11:06:38;;;;;;;1.75;1.20;;;25.40;73.00;;;;;;5033925;28;20028;-26
2022/07/17 11:09:08;;;;;;;2.28;1.10;;;25.40;72.90;;;;;;5015921;28;20038;-26
2022/07/17 11:11:45;;;;;;;1.65;1.20;;;25.40;72.90;;;;;;5056828;22;20046;-25
2022/07/17 11:14:12;;;;;;;1.73;1.13;;;25.40;72.80;;;;;;5035675;28;20052;-25
2022/07/17 11:17:04;;;;;;;1.42;1.00;;;25.40;72.80;;;;;;5033752;28;20441;-25
2022/07/17 11:19:42;;;;;;;1.90;1.10;;;25.50;72.90;;;;;;5033356;28;20517;-25
2022/07/17 11:22:12;;;;;;;1.45;1.10;;;25.50;72.90;;;;;;5018239;28;20021;-25
2022/07/17 11:24:38;;;;;;;1.10;1.00;;;25.50;72.80;;;;;;5015853;28;20032;-25
2022/07/17 11:27:04;;;;;;;2.22;1.23;;;25.40;72.60;;;;;;5033947;28;20030;-25
2022/07/17 11:29:35;;;;;;;1.23;1.00;;;25.50;72.60;;;;;;5034858;28;20033;-25
2022/07/17 11:32:00;;;;;;;1.42;1.00;;;25.50;72.50;;;;;;5033651;28;20025;-25
2022/07/17 11:34:26;;;;;;;1.23;1.13;;;25.50;73.30;;;;;;5033725;28;20021;-25
2022/07/17 11:37:02;;;;;;;1.83;1.15;;;25.50;72.50;;;;;;5033431;28;20382;-26
2022/07/17 11:39:47;;;;;;;1.02;0.93;;;25.50;72.40;;;;;;5015822;28;20044;-25
2022/07/17 11:42:16;;;;;;;1.30;0.93;;;25.60;72.30;;;;;;5033167;28;20101;-25
2022/07/17 11:44:43;;;;;;;2.00;1.20;;;25.60;72.30;;;;;;5033349;28;20104;-25
2022/07/17 11:47:10;;;;;;;1.90;1.20;;;25.60;72.20;;;;;;5033268;28;20021;-25
2022/07/17 11:49:39;;;;;;;0.93;0.80;;;25.60;72.30;;;;;;5033109;28;20071;-25
2022/07/17 11:52:11;;;;;;;2.10;1.10;;;25.60;72.20;;;;;;5015783;28;20032;-25
2022/07/17 11:55:04;;;;;;;5.45;1.10;;;25.60;72.20;;;;;;5033017;28;20032;-25
2022/07/17 11:57:45;;;;;;;1.30;1.20;;;25.60;72.20;;;;;;5012539;28;20070;-25
2022/07/17 12:00:12;;;;;;;1.77;0.95;;;25.60;72.10;;;;;;5032932;28;20048;-25
2022/07/17 12:02:38;;;;;;;1.52;1.10;;;25.60;73.00;;;;;;5015383;28;20398;-25
2022/07/17 12:05:04;;;;;;;1.23;1.00;;;25.60;72.20;;;;;;5033394;28;20032;-25
2022/07/17 12:07:42;;;;;;;1.52;1.08;;;25.70;72.10;;;;;;5032863;28;20095;-25
2022/07/17 12:10:24;;;;;;;1.42;1.02;;;25.70;72.10;;;;;;5015492;28;20026;-25
2022/07/17 12:13:04;;;;;;;1.92;1.08;;;25.70;72.10;;;;;;5033296;28;20068;-25
2022/07/17 12:15:43;;;;;;;0.80;0.80;;;25.70;72.10;;;;;;5032888;28;20079;-25
2022/07/17 12:18:27;;;;;;;1.10;1.00;;;25.70;72.10;;;;;;5016300;28;20100;-25
2022/07/17 12:20:57;;;;;;;1.35;1.00;;;25.70;72.00;;;;;;5032648;28;20100;-25
2022/07/17 12:23:30;;;;;;;2.10;1.10;;;25.70;72.00;;;;;;5015910;28;20025;-25
2022/07/17 12:26:16;;;;;;;1.27;0.82;;;25.70;72.00;;;;;;5014697;28;20026;-25
2022/07/17 12:28:43;;;;;;;8.18;1.10;;;25.80;62.80;;;;;;5032500;28;20026;-25
2022/07/17 12:31:13;;;;;;;8.50;1.20;;;25.90;59.60;;;;;;5033111;28;20021;-25
2022/07/17 12:33:39;;;;;;;6.60;1.33;;;25.90;59.80;;;;;;5032570;28;20106;-25
2022/07/17 12:36:05;;;;;;;3.00;1.10;;;25.90;60.80;;;;;;5032785;28;20425;-25
2022/07/17 12:38:31;;;;;;;2.75;1.20;;;25.90;61.80;;;;;;5014205;28;20033;-25
2022/07/17 12:40:57;;;;;;;4.43;1.35;;;25.90;62.60;;;;;;5032231;28;20021;-25
2022/07/17 12:43:24;;;;;;;4.07;1.20;;;25.90;63.20;;;;;;5032419;28;20053;-25
2022/07/17 12:45:50;;;;;;;6.53;1.20;;;25.90;63.80;;;;;;5032163;28;20032;-25
2022/07/17 12:48:16;;;;;;;4.47;1.35;;;25.80;64.10;;;;;;5031919;28;20064;-25